createdAt,value
2018-04-09T00:01:02.828Z,-53
2018-04-09T00:03:28.505Z,-53
2018-04-09T00:05:54.184Z,-54
2018-04-09T00:08:19.852Z,-53
2018-04-09T00:10:45.534Z,-53
2018-04-09T00:13:11.198Z,-53
2018-04-09T00:15:36.894Z,-53
2018-04-09T00:18:02.572Z,-54
2018-04-09T00:20:28.485Z,-54
2018-04-09T00:22:54.155Z,-53
2018-04-09T00:25:19.820Z,-53
2018-04-09T00:27:45.528Z,-53
2018-04-09T00:30:11.508Z,-55
2018-04-09T00:32:37.184Z,-54
2018-04-09T00:35:02.864Z,-54
2018-04-09T00:37:28.538Z,-53
2018-04-09T00:39:54.217Z,-53
2018-04-09T00:42:19.880Z,-54
2018-04-09T00:44:45.856Z,-53
2018-04-09T00:47:11.568Z,-53
2018-04-09T00:49:37.263Z,-53
2018-04-09T00:52:02.945Z,-53
2018-04-09T00:54:28.636Z,-53
2018-04-09T00:56:54.312Z,-53
2018-04-09T00:59:19.994Z,-53
2018-04-09T01:01:45.660Z,-53
2018-04-09T01:04:11.579Z,-53
2018-04-09T01:06:37.245Z,-53
2018-04-09T01:09:02.924Z,-54
2018-04-09T01:11:28.640Z,-54
2018-04-09T01:13:54.309Z,-53
2018-04-09T01:16:20.011Z,-53
2018-04-09T01:18:45.674Z,-54
2018-04-09T01:21:11.568Z,-54
2018-04-09T01:23:37.227Z,-54
2018-04-09T01:26:02.913Z,-54
2018-04-09T01:28:28.573Z,-53
2018-04-09T01:30:54.985Z,-53
2018-04-09T01:33:20.668Z,-53
2018-04-09T01:35:46.356Z,-53
2018-04-09T01:38:12.035Z,-53
2018-04-09T01:40:37.700Z,-54
2018-04-09T01:43:03.360Z,-54
2018-04-09T01:45:29.051Z,-53
2018-04-09T01:47:54.717Z,-54
2018-04-09T01:50:20.433Z,-53
2018-04-09T01:52:46.105Z,-54
2018-04-09T01:55:11.797Z,-53
2018-04-09T01:57:37.444Z,-53
2018-04-09T02:00:03.132Z,-53
2018-04-09T02:02:28.788Z,-53
2018-04-09T02:04:54.466Z,-53
2018-04-09T02:07:20.136Z,-54
2018-04-09T02:09:45.815Z,-54
2018-04-09T02:12:11.505Z,-53
2018-04-09T02:14:37.192Z,-54
2018-04-09T02:17:02.842Z,-53
2018-04-09T02:19:28.798Z,-54
2018-04-09T02:21:54.468Z,-52
2018-04-09T02:24:20.215Z,-53
2018-04-09T02:26:45.880Z,-53
2018-04-09T02:29:11.542Z,-53
2018-04-09T02:31:38.049Z,-53
2018-04-09T02:34:03.724Z,-54
2018-04-09T02:36:29.392Z,-53
2018-04-09T02:38:55.036Z,-53
2018-04-09T02:41:20.722Z,-53
2018-04-09T02:43:46.376Z,-53
2018-04-09T02:46:12.056Z,-53
2018-04-09T02:48:37.705Z,-54
2018-04-09T02:51:03.439Z,-54
2018-04-09T02:53:29.109Z,-53
2018-04-09T02:55:54.813Z,-53
2018-04-09T02:58:20.471Z,-53
2018-04-09T03:00:46.155Z,-53
2018-04-09T03:03:11.836Z,-53
2018-04-09T03:05:37.577Z,-52
2018-04-09T03:08:03.244Z,-53
2018-04-09T03:10:28.921Z,-52
2018-04-09T03:12:54.610Z,-53
2018-04-09T03:15:20.284Z,-52
2018-04-09T03:17:45.955Z,-53
2018-04-09T03:20:11.618Z,-52
2018-04-09T03:22:37.312Z,-52
2018-04-09T03:25:03.036Z,-53
2018-04-09T03:27:28.705Z,-53
2018-04-09T03:29:54.392Z,-53
2018-04-09T03:32:20.292Z,-53
2018-04-09T03:34:45.944Z,-52
2018-04-09T03:37:11.816Z,-52
2018-04-09T03:39:37.492Z,-53
2018-04-09T03:42:03.184Z,-52
2018-04-09T03:44:28.857Z,-52
2018-04-09T03:46:54.558Z,-53
2018-04-09T03:49:20.212Z,-53
2018-04-09T03:51:46.231Z,-53
2018-04-09T03:54:11.913Z,-53
2018-04-09T03:56:37.775Z,-53
2018-04-09T03:59:03.435Z,-54
2018-04-09T04:01:29.212Z,-53
2018-04-09T04:03:54.889Z,-54
2018-04-09T04:06:20.626Z,-54
2018-04-09T04:08:46.292Z,-53
2018-04-09T04:11:11.965Z,-52
2018-04-09T04:13:37.651Z,-53
2018-04-09T04:16:09.424Z,-54
2018-04-09T04:18:41.187Z,-53
2018-04-09T04:21:13.089Z,-53
2018-04-09T04:23:39.064Z,-53
2018-04-09T04:26:04.770Z,-53
2018-04-09T04:28:30.608Z,-53
2018-04-09T04:30:56.621Z,-53
2018-04-09T04:33:22.312Z,-54
2018-04-09T04:35:47.980Z,-55
2018-04-09T04:38:13.658Z,-57
2018-04-09T04:40:39.356Z,-54
2018-04-09T04:51:21.952Z,-53
2018-04-09T04:53:47.601Z,-53
2018-04-09T04:56:13.492Z,-53
2018-04-09T04:58:39.172Z,-53
2018-04-09T05:01:05.229Z,-53
2018-04-09T05:03:30.895Z,-53
2018-04-09T05:05:56.568Z,-54
2018-04-09T05:08:23.292Z,-53
2018-04-09T05:10:49.005Z,-54
2018-04-09T05:13:14.675Z,-53
2018-04-09T05:15:40.357Z,-53
2018-04-09T05:18:06.016Z,-52
2018-04-09T05:20:31.684Z,-53
2018-04-09T05:22:57.389Z,-53
2018-04-09T05:25:23.041Z,-52
2018-04-09T05:27:48.719Z,-53
2018-04-09T05:30:14.848Z,-53
2018-04-09T05:32:40.544Z,-53
2018-04-09T05:35:06.208Z,-52
2018-04-09T05:37:31.906Z,-52
2018-04-09T05:39:57.920Z,-53
2018-04-09T05:42:23.613Z,-54
2018-04-09T05:44:49.293Z,-53
2018-04-09T05:47:14.972Z,-54
2018-04-09T05:49:40.620Z,-54
2018-04-09T05:52:06.305Z,-54
2018-04-09T05:54:32.388Z,-53
2018-04-09T05:56:58.072Z,-58
2018-04-09T05:59:23.786Z,-54
2018-04-09T06:01:49.473Z,-53
2018-04-09T06:04:15.168Z,-54
2018-04-09T06:06:40.861Z,-53
2018-04-09T06:09:06.544Z,-55
2018-04-09T06:11:32.238Z,-54
2018-04-09T06:13:57.931Z,-53
2018-04-09T06:16:23.984Z,-53
2018-04-09T06:18:49.639Z,-54
2018-04-09T06:21:15.525Z,-54
2018-04-09T06:23:41.252Z,-55
2018-04-09T06:26:06.946Z,-53
2018-04-09T06:28:32.618Z,-52
2018-04-09T06:30:58.288Z,-56
2018-04-09T06:33:23.937Z,-52
2018-04-09T06:35:49.651Z,-53
2018-04-09T06:38:15.322Z,-54
2018-04-09T06:40:41.020Z,-53
2018-04-09T06:43:06.721Z,-54
2018-04-09T06:45:32.396Z,-54
2018-04-09T06:47:58.093Z,-53
2018-04-09T06:50:23.788Z,-53
2018-04-09T06:52:49.447Z,-52
2018-04-09T06:55:15.551Z,-54
2018-04-09T06:57:41.235Z,-54
2018-04-09T07:00:06.925Z,-53
2018-04-09T07:02:32.624Z,-53
2018-04-09T07:04:58.328Z,-53
2018-04-09T07:07:24.036Z,-52
2018-04-09T07:09:49.701Z,-53
2018-04-09T07:12:15.377Z,-53
2018-04-09T07:14:41.057Z,-53
2018-04-09T07:17:06.885Z,-53
2018-04-09T07:19:32.556Z,-53
2018-04-09T07:21:58.235Z,-52
2018-04-09T07:24:23.914Z,-52
2018-04-09T07:26:49.646Z,-53
2018-04-09T07:29:15.305Z,-53
2018-04-09T07:31:41.116Z,-53
2018-04-09T07:34:06.792Z,-53
2018-04-09T07:36:32.470Z,-53
2018-04-09T07:38:58.125Z,-52
2018-04-09T07:41:23.806Z,-51
2018-04-09T07:43:49.472Z,-51
2018-04-09T07:46:15.219Z,-51
2018-04-09T07:48:40.905Z,-51
2018-04-09T07:51:06.588Z,-51
2018-04-09T07:53:32.264Z,-51
2018-04-09T07:55:57.934Z,-51
2018-04-09T07:58:23.591Z,-50
2018-04-09T08:00:49.288Z,-51
2018-04-09T08:03:14.963Z,-51
2018-04-09T08:05:40.641Z,-50
2018-04-09T08:08:06.300Z,-51
2018-04-09T08:10:32.012Z,-51
2018-04-09T08:12:57.680Z,-51
2018-04-09T08:15:23.344Z,-52
2018-04-09T08:17:49.004Z,-51
2018-04-09T08:20:14.659Z,-52
2018-04-09T08:22:40.316Z,-52
2018-04-09T08:25:05.989Z,-51
2018-04-09T08:27:31.668Z,-51
2018-04-09T08:29:57.336Z,-51
2018-04-09T08:32:23.026Z,-51
2018-04-09T08:34:48.701Z,-51
2018-04-09T08:37:14.366Z,-51
2018-04-09T08:39:40.028Z,-51
2018-04-09T08:42:05.780Z,-51
2018-04-09T08:44:31.435Z,-52
2018-04-09T08:46:57.128Z,-52
2018-04-09T08:49:22.785Z,-51
2018-04-09T08:51:48.448Z,-51
2018-04-09T08:54:14.508Z,-51
2018-04-09T08:56:40.170Z,-52
2018-04-09T08:59:05.990Z,-51
2018-04-09T09:01:31.669Z,-51
2018-04-09T09:03:57.340Z,-52
2018-04-09T09:06:22.997Z,-52
2018-04-09T09:08:48.690Z,-51
2018-04-09T09:11:14.336Z,-51
2018-04-09T09:13:40.001Z,-51
2018-04-09T09:16:05.656Z,-51
2018-04-09T09:18:31.332Z,-51
2018-04-09T09:20:57.001Z,-51
2018-04-09T09:23:22.648Z,-52
2018-04-09T09:25:48.299Z,-51
2018-04-09T09:28:13.969Z,-52
2018-04-09T09:30:40.057Z,-52
2018-04-09T09:33:05.752Z,-52
2018-04-09T09:35:31.425Z,-52
2018-04-09T09:37:57.252Z,-54
2018-04-09T09:40:22.976Z,-53
2018-04-09T09:42:48.649Z,-53
2018-04-09T09:45:14.308Z,-52
2018-04-09T09:47:39.976Z,-52
2018-04-09T09:50:05.657Z,-52
2018-04-09T09:52:31.631Z,-52
2018-04-09T09:54:57.372Z,-52
2018-04-09T09:57:23.069Z,-52
2018-04-09T09:59:48.739Z,-52
2018-04-09T10:02:15.347Z,-52
2018-04-09T10:04:40.996Z,-52
2018-04-09T10:07:07.593Z,-53
2018-04-09T10:09:33.244Z,-53
2018-04-09T10:11:59.605Z,-52
2018-04-09T10:14:25.264Z,-52
2018-04-09T10:16:50.969Z,-53
2018-04-09T10:19:16.669Z,-52
2018-04-09T10:21:42.363Z,-53
2018-04-09T10:24:08.049Z,-52
2018-04-09T10:26:33.700Z,-52
2018-04-09T10:28:59.373Z,-51
2018-04-09T10:31:25.285Z,-54
2018-04-09T10:33:50.964Z,-53
2018-04-09T10:36:16.622Z,-53
2018-04-09T10:38:42.302Z,-52
2018-04-09T10:41:07.952Z,-53
2018-04-09T10:43:33.650Z,-53
2018-04-09T10:45:59.311Z,-52
2018-04-09T10:48:25.014Z,-52
2018-04-09T10:50:50.662Z,-54
2018-04-09T10:53:16.360Z,-53
2018-04-09T10:55:42.037Z,-53
2018-04-09T10:58:07.706Z,-52
2018-04-09T11:00:33.363Z,-52
2018-04-09T11:02:59.035Z,-52
2018-04-09T11:05:24.694Z,-52
2018-04-09T11:07:50.384Z,-52
2018-04-09T11:10:16.047Z,-52
2018-04-09T11:12:41.728Z,-53
2018-04-09T11:15:07.397Z,-52
2018-04-09T11:17:33.068Z,-53
2018-04-09T11:19:58.775Z,-52
2018-04-09T11:22:24.426Z,-51
2018-04-09T11:24:50.108Z,-52
2018-04-09T11:27:15.813Z,-52
2018-04-09T11:29:41.485Z,-52
2018-04-09T11:32:07.389Z,-51
2018-04-09T11:34:33.069Z,-51
2018-04-09T11:36:58.751Z,-52
2018-04-09T11:39:24.509Z,-50
2018-04-09T11:41:50.171Z,-51
2018-04-09T11:44:15.968Z,-51
2018-04-09T11:46:41.641Z,-51
2018-04-09T11:49:07.306Z,-51
2018-04-09T11:51:32.962Z,-52
2018-04-09T11:53:58.738Z,-51
2018-04-09T11:56:24.410Z,-52
2018-04-09T11:58:50.103Z,-52
2018-04-09T12:01:15.771Z,-52
2018-04-09T12:03:41.431Z,-53
2018-04-09T12:06:07.119Z,-53
2018-04-09T12:08:32.802Z,-53
2018-04-09T12:10:58.450Z,-51
2018-04-09T12:13:24.123Z,-51
2018-04-09T12:15:49.786Z,-51
2018-04-09T12:18:15.703Z,-50
2018-04-09T12:20:41.351Z,-51
2018-04-09T12:23:07.046Z,-51
2018-04-09T12:25:32.714Z,-51
2018-04-09T12:27:58.375Z,-51
2018-04-09T12:30:24.382Z,-52
2018-04-09T12:32:50.038Z,-51
2018-04-09T12:35:15.714Z,-51
2018-04-09T12:37:41.390Z,-52
2018-04-09T12:40:07.150Z,-53
2018-04-09T12:42:32.833Z,-52
2018-04-09T12:44:58.573Z,-52
2018-04-09T12:47:24.329Z,-52
2018-04-09T12:49:50.014Z,-51
2018-04-09T12:52:15.666Z,-51
2018-04-09T12:54:41.763Z,-51
2018-04-09T12:57:07.422Z,-51
2018-04-09T12:59:33.098Z,-51
2018-04-09T13:01:58.774Z,-51
2018-04-09T13:04:24.434Z,-51
2018-04-09T13:06:50.085Z,-51
2018-04-09T13:09:15.751Z,-51
2018-04-09T13:11:41.414Z,-52
2018-04-09T13:14:07.103Z,-51
2018-04-09T13:16:32.765Z,-52
2018-04-09T13:18:58.438Z,-51
2018-04-09T13:21:24.108Z,-51
2018-04-09T13:23:49.782Z,-51
2018-04-09T13:26:15.432Z,-51
2018-04-09T13:28:41.090Z,-51
2018-04-09T13:31:06.767Z,-52
2018-04-09T13:33:32.441Z,-52
2018-04-09T13:35:58.091Z,-51
2018-04-09T13:38:23.760Z,-51
2018-04-09T13:40:49.427Z,-51
2018-04-09T13:43:15.095Z,-51
2018-04-09T13:45:40.783Z,-51
2018-04-09T13:48:06.454Z,-53
2018-04-09T13:50:32.143Z,-51
2018-04-09T13:52:57.791Z,-51
2018-04-09T13:55:23.462Z,-51
2018-04-09T13:57:49.134Z,-50
2018-04-09T14:00:14.962Z,-50
2018-04-09T14:02:40.623Z,-50
2018-04-09T14:05:06.306Z,-50
2018-04-09T14:07:31.981Z,-52
2018-04-09T14:09:57.648Z,-50
2018-04-09T14:12:23.294Z,-51
2018-04-09T14:14:48.987Z,-51
2018-04-09T14:17:14.674Z,-51
2018-04-09T14:19:40.338Z,-51
2018-04-09T14:22:06.006Z,-50
2018-04-09T14:24:31.715Z,-55
2018-04-09T14:26:57.435Z,-51
2018-04-09T14:29:23.215Z,-51
2018-04-09T14:31:48.943Z,-51
2018-04-09T14:34:14.605Z,-51
2018-04-09T14:36:40.258Z,-55
2018-04-09T14:39:05.934Z,-54
2018-04-09T14:41:31.616Z,-52
2018-04-09T14:43:57.290Z,-51
2018-04-09T14:46:22.957Z,-51
2018-04-09T14:48:48.610Z,-51
2018-04-09T14:51:14.302Z,-51
2018-04-09T14:53:39.959Z,-52
2018-04-09T14:56:05.622Z,-51
2018-04-09T14:58:31.276Z,-52
2018-04-09T15:00:56.955Z,-51
2018-04-09T15:03:22.631Z,-51
2018-04-09T15:05:48.335Z,-51
2018-04-09T15:08:14.002Z,-52
2018-04-09T15:10:39.671Z,-51
2018-04-09T15:13:05.338Z,-51
2018-04-09T15:15:31.008Z,-51
2018-04-09T15:17:56.662Z,-52
2018-04-09T15:20:22.327Z,-52
2018-04-09T15:22:47.989Z,-51
2018-04-09T15:25:13.724Z,-52
2018-04-09T15:27:39.393Z,-52
2018-04-09T15:30:05.083Z,-51
2018-04-09T15:32:31.174Z,-52
2018-04-09T15:34:56.879Z,-52
2018-04-09T15:37:22.538Z,-51
2018-04-09T15:39:48.223Z,-51
2018-04-09T15:42:13.890Z,-52
2018-04-09T15:44:39.610Z,-53
2018-04-09T15:47:05.274Z,-53
2018-04-09T15:49:31.053Z,-53
2018-04-09T15:51:56.725Z,-51
2018-04-09T15:54:22.627Z,-51
2018-04-09T15:56:48.314Z,-52
2018-04-09T15:59:13.990Z,-53
2018-04-09T16:01:40.013Z,-52
2018-04-09T16:04:05.665Z,-52
2018-04-09T16:06:31.350Z,-52
2018-04-09T16:08:57.040Z,-52
2018-04-09T16:11:22.722Z,-51
2018-04-09T16:13:48.410Z,-51
2018-04-09T16:16:14.098Z,-51
2018-04-09T16:18:39.742Z,-51
2018-04-09T16:21:05.429Z,-52
2018-04-09T16:23:31.111Z,-53
2018-04-09T16:25:56.827Z,-52
2018-04-09T16:28:22.501Z,-52
2018-04-09T16:30:48.686Z,-52
2018-04-09T16:33:14.379Z,-51
2018-04-09T16:35:40.058Z,-51
2018-04-09T16:38:05.721Z,-52
2018-04-09T16:40:31.389Z,-52
2018-04-09T16:42:57.051Z,-53
2018-04-09T16:45:22.919Z,-52
2018-04-09T16:47:48.594Z,-52
2018-04-09T16:50:14.310Z,-52
2018-04-09T16:52:39.958Z,-54
2018-04-09T16:55:06.604Z,-53
2018-04-09T16:57:32.274Z,-52
2018-04-09T16:59:57.971Z,-53
2018-04-09T17:02:23.657Z,-52
2018-04-09T17:04:49.342Z,-51
2018-04-09T17:07:15.057Z,-51
2018-04-09T17:09:40.752Z,-51
2018-04-09T17:12:06.612Z,-50
2018-04-09T17:14:32.329Z,-51
2018-04-09T17:16:58.045Z,-52
2018-04-09T17:19:23.715Z,-50
2018-04-09T17:21:49.686Z,-52
2018-04-09T17:24:15.380Z,-52
2018-04-09T17:26:41.065Z,-51
2018-04-09T17:29:06.738Z,-52
2018-04-09T17:31:32.662Z,-52
2018-04-09T17:33:58.348Z,-52
2018-04-09T17:36:24.025Z,-52
2018-04-09T17:38:49.770Z,-51
2018-04-09T17:41:15.458Z,-52
2018-04-09T17:43:41.110Z,-52
2018-04-09T17:46:06.797Z,-51
2018-04-09T17:48:32.489Z,-50
2018-04-09T17:50:58.162Z,-51
2018-04-09T17:53:23.811Z,-51
2018-04-09T17:55:49.485Z,-51
2018-04-09T17:58:15.145Z,-52
2018-04-09T18:00:41.053Z,-52
2018-04-09T18:03:06.731Z,-52
2018-04-09T18:05:32.407Z,-51
2018-04-09T18:07:58.072Z,-51
2018-04-09T18:10:23.777Z,-51
2018-04-09T18:12:49.449Z,-51
2018-04-09T18:15:15.145Z,-51
2018-04-09T18:17:40.842Z,-53
2018-04-09T18:20:06.522Z,-53
2018-04-09T18:22:32.541Z,-51
2018-04-09T18:24:58.228Z,-51
2018-04-09T18:27:23.966Z,-51
2018-04-09T18:29:49.671Z,-51
2018-04-09T18:32:15.890Z,-51
2018-04-09T18:34:41.539Z,-50
2018-04-09T18:37:07.234Z,-52
2018-04-09T18:39:32.897Z,-51
2018-04-09T18:41:58.682Z,-51
2018-04-09T18:44:24.363Z,-51
2018-04-09T18:46:50.036Z,-51
2018-04-09T18:49:16.774Z,-53
2018-04-09T18:51:42.613Z,-52
2018-04-09T18:54:08.313Z,-52
2018-04-09T18:56:34.014Z,-54
2018-04-09T18:58:59.670Z,-50
2018-04-09T19:01:25.346Z,-50
2018-04-09T19:03:51.158Z,-50
2018-04-09T19:06:16.859Z,-50
2018-04-09T19:08:42.543Z,-50
2018-04-09T19:11:08.215Z,-51
2018-04-09T19:13:33.897Z,-50
2018-04-09T19:15:59.593Z,-50
2018-04-09T19:18:25.290Z,-51
2018-04-09T19:20:50.966Z,-51
2018-04-09T19:23:16.666Z,-51
2018-04-09T19:25:42.343Z,-51
2018-04-09T19:28:08.055Z,-51
2018-04-09T19:30:34.897Z,-52
2018-04-09T19:33:00.609Z,-51
2018-04-09T19:35:26.303Z,-52
2018-04-09T19:37:58.090Z,-51
2018-04-09T19:40:29.784Z,-51
2018-04-09T19:42:55.501Z,-51
2018-04-09T19:45:21.386Z,-51
2018-04-09T19:47:47.046Z,-50
2018-04-09T19:50:12.719Z,-49
2018-04-09T19:52:38.394Z,-49
2018-04-09T19:55:04.054Z,-50
2018-04-09T19:57:29.714Z,-50
2018-04-09T19:59:55.418Z,-50
2018-04-09T20:02:21.272Z,-51
2018-04-09T20:04:46.963Z,-50
2018-04-09T20:07:12.663Z,-50
2018-04-09T20:09:38.330Z,-50
2018-04-09T20:12:04.021Z,-50
2018-04-09T20:14:29.742Z,-50
2018-04-09T20:16:55.483Z,-50
2018-04-09T20:19:21.158Z,-50
2018-04-09T20:21:46.866Z,-50
2018-04-09T20:24:12.544Z,-51
2018-04-09T20:26:38.252Z,-50
2018-04-09T20:29:03.922Z,-51
2018-04-09T20:31:29.666Z,-50
2018-04-09T20:33:55.347Z,-51
2018-04-09T20:36:21.354Z,-50
2018-04-09T20:38:47.359Z,-51
2018-04-09T20:41:13.262Z,-51
2018-04-09T20:43:38.938Z,-51
2018-04-09T20:46:04.611Z,-54
2018-04-09T20:48:30.286Z,-51
2018-04-09T20:50:55.963Z,-50
2018-04-09T20:53:21.699Z,-51
2018-04-09T20:55:47.391Z,-51
2018-04-09T20:58:13.045Z,-51
2018-04-09T21:00:38.743Z,-50
2018-04-09T21:03:04.402Z,-50
2018-04-09T21:05:30.086Z,-50
2018-04-09T21:07:55.802Z,-50
2018-04-09T21:10:21.673Z,-51
2018-04-09T21:12:47.339Z,-50
2018-04-09T21:15:13.010Z,-50
2018-04-09T21:17:38.690Z,-50
2018-04-09T21:20:04.378Z,-50
2018-04-09T21:22:30.094Z,-50
2018-04-09T21:24:55.798Z,-50
2018-04-09T21:27:21.470Z,-51
2018-04-09T21:29:47.146Z,-51
2018-04-09T21:32:12.870Z,-50
2018-04-09T21:34:38.564Z,-50
2018-04-09T21:37:04.218Z,-50
2018-04-09T21:39:29.884Z,-50
2018-04-09T21:41:55.578Z,-50
2018-04-09T21:44:21.318Z,-50
2018-04-09T21:46:46.986Z,-50
2018-04-09T21:49:12.650Z,-50
2018-04-09T21:51:38.326Z,-50
2018-04-09T21:54:04.414Z,-50
2018-04-09T21:56:30.482Z,-50
2018-04-09T21:58:56.222Z,-50
2018-04-09T22:01:21.846Z,-50
2018-04-09T22:03:47.515Z,-50
2018-04-09T22:06:13.182Z,-50
2018-04-09T22:08:38.861Z,-50
2018-04-09T22:11:04.590Z,-50
2018-04-09T22:13:30.238Z,-50
2018-04-09T22:15:56.110Z,-50
2018-04-09T22:18:21.765Z,-50
2018-04-09T22:20:47.483Z,-50
2018-04-09T22:23:13.150Z,-50
2018-04-09T22:25:38.815Z,-50
2018-04-09T22:28:04.483Z,-50
2018-04-09T22:30:30.174Z,-50
2018-04-09T22:32:55.931Z,-50
2018-04-09T22:35:21.600Z,-50
2018-04-09T22:37:47.279Z,-51
2018-04-09T22:40:12.950Z,-51
2018-04-09T22:42:38.618Z,-51
2018-04-09T22:45:04.282Z,-50
2018-04-09T22:47:29.945Z,-52
2018-04-09T22:49:55.934Z,-51
2018-04-09T22:52:21.585Z,-51
2018-04-09T22:54:47.534Z,-51
2018-04-09T22:57:13.234Z,-50
2018-04-09T22:59:38.905Z,-50
2018-04-09T23:02:04.738Z,-50
2018-04-09T23:04:30.406Z,-50
2018-04-09T23:06:56.097Z,-50
2018-04-09T23:09:21.750Z,-50
2018-04-09T23:11:47.430Z,-50
2018-04-09T23:14:13.087Z,-52
2018-04-09T23:16:38.794Z,-51
2018-04-09T23:19:04.453Z,-51
2018-04-09T23:21:30.350Z,-51
2018-04-09T23:23:56.020Z,-51
2018-04-09T23:26:21.723Z,-51
2018-04-09T23:28:47.453Z,-51
2018-04-09T23:31:13.127Z,-53
2018-04-09T23:33:38.782Z,-53
2018-04-09T23:36:04.446Z,-53
2018-04-09T23:38:30.135Z,-53
2018-04-09T23:40:55.837Z,-52
2018-04-09T23:43:21.530Z,-52
2018-04-09T23:45:47.199Z,-53
2018-04-09T23:48:12.861Z,-52
2018-04-09T23:50:38.528Z,-53
2018-04-09T23:53:04.198Z,-52
2018-04-09T23:55:30.055Z,-52
2018-04-09T23:57:55.745Z,-52
